sensor_id;sensor_type;location;lat;lon;timestamp;P1;durP1;ratioP1;P2;durP2;ratioP2
12135;SDS011;6131;56.420;15.548;2024-02-23T00:01:17;1.93;;;1.40;;
12135;SDS011;6131;56.420;15.548;2024-02-23T00:03:43;2.00;;;1.40;;
12135;SDS011;6131;56.420;15.548;2024-02-23T00:06:09;1.30;;;1.20;;
12135;SDS011;6131;56.420;15.548;2024-02-23T00:08:35;1.80;;;1.50;;
12135;SDS011;6131;56.420;15.548;2024-02-23T00:11:01;2.60;;;1.40;;
12135;SDS011;6131;56.420;15.548;2024-02-23T00:13:27;2.40;;;1.70;;
12135;SDS011;6131;56.420;15.548;2024-02-23T00:15:53;1.90;;;1.70;;
12135;SDS011;6131;56.420;15.548;2024-02-23T00:18:19;2.77;;;1.90;;
12135;SDS011;6131;56.420;15.548;2024-02-23T00:20:46;3.17;;;2.40;;
12135;SDS011;6131;56.420;15.548;2024-02-23T00:23:12;3.87;;;2.30;;
12135;SDS011;6131;56.420;15.548;2024-02-23T00:25:38;6.93;;;2.90;;
12135;SDS011;6131;56.420;15.548;2024-02-23T00:28:04;4.37;;;3.10;;
12135;SDS011;6131;56.420;15.548;2024-02-23T00:30:30;6.13;;;3.60;;
12135;SDS011;6131;56.420;15.548;2024-02-23T00:32:56;15.10;;;3.93;;
12135;SDS011;6131;56.420;15.548;2024-02-23T00:35:22;15.20;;;4.83;;
12135;SDS011;6131;56.420;15.548;2024-02-23T00:37:48;18.17;;;5.70;;
12135;SDS011;6131;56.420;15.548;2024-02-23T00:40:14;24.67;;;6.03;;
12135;SDS011;6131;56.420;15.548;2024-02-23T00:42:40;24.87;;;7.00;;
12135;SDS011;6131;56.420;15.548;2024-02-23T00:45:06;44.80;;;6.70;;
12135;SDS011;6131;56.420;15.548;2024-02-23T00:47:33;22.07;;;7.13;;
12135;SDS011;6131;56.420;15.548;2024-02-23T00:50:00;18.87;;;7.03;;
12135;SDS011;6131;56.420;15.548;2024-02-23T00:55:30;9.77;;;6.43;;
12135;SDS011;6131;56.420;15.548;2024-02-23T00:57:56;10.07;;;6.23;;
12135;SDS011;6131;56.420;15.548;2024-02-23T01:00:22;10.80;;;7.20;;
12135;SDS011;6131;56.420;15.548;2024-02-23T01:02:48;10.20;;;7.47;;
12135;SDS011;6131;56.420;15.548;2024-02-23T01:05:14;9.50;;;6.90;;
12135;SDS011;6131;56.420;15.548;2024-02-23T01:07:40;10.77;;;6.87;;
12135;SDS011;6131;56.420;15.548;2024-02-23T01:10:06;9.93;;;5.67;;
12135;SDS011;6131;56.420;15.548;2024-02-23T01:12:32;13.97;;;6.90;;
12135;SDS011;6131;56.420;15.548;2024-02-23T01:14:58;5.90;;;4.93;;
12135;SDS011;6131;56.420;15.548;2024-02-23T01:17:24;6.63;;;5.53;;
12135;SDS011;6131;56.420;15.548;2024-02-23T01:19:50;6.83;;;5.20;;
12135;SDS011;6131;56.420;15.548;2024-02-23T01:22:17;5.70;;;4.63;;
12135;SDS011;6131;56.420;15.548;2024-02-23T01:24:43;6.60;;;5.03;;
12135;SDS011;6131;56.420;15.548;2024-02-23T01:27:09;5.77;;;5.13;;
12135;SDS011;6131;56.420;15.548;2024-02-23T01:29:35;5.20;;;4.20;;
12135;SDS011;6131;56.420;15.548;2024-02-23T01:32:01;5.10;;;4.40;;
12135;SDS011;6131;56.420;15.548;2024-02-23T01:34:27;5.37;;;4.60;;
12135;SDS011;6131;56.420;15.548;2024-02-23T01:36:53;6.47;;;5.07;;
12135;SDS011;6131;56.420;15.548;2024-02-23T01:39:19;6.23;;;4.80;;
12135;SDS011;6131;56.420;15.548;2024-02-23T01:41:45;6.57;;;4.80;;
12135;SDS011;6131;56.420;15.548;2024-02-23T01:44:11;6.60;;;4.87;;
12135;SDS011;6131;56.420;15.548;2024-02-23T01:46:37;6.63;;;5.47;;
12135;SDS011;6131;56.420;15.548;2024-02-23T01:49:03;11.27;;;6.67;;
12135;SDS011;6131;56.420;15.548;2024-02-23T01:51:29;8.07;;;6.70;;
12135;SDS011;6131;56.420;15.548;2024-02-23T01:53:56;9.20;;;7.63;;
12135;SDS011;6131;56.420;15.548;2024-02-23T01:56:22;7.57;;;6.77;;
12135;SDS011;6131;56.420;15.548;2024-02-23T01:58:48;7.97;;;5.93;;
12135;SDS011;6131;56.420;15.548;2024-02-23T02:01:15;7.70;;;6.07;;
12135;SDS011;6131;56.420;15.548;2024-02-23T02:03:40;4.53;;;4.03;;
12135;SDS011;6131;56.420;15.548;2024-02-23T02:06:06;4.50;;;3.70;;
12135;SDS011;6131;56.420;15.548;2024-02-23T02:08:33;4.67;;;3.83;;
12135;SDS011;6131;56.420;15.548;2024-02-23T02:11:00;4.20;;;3.40;;
12135;SDS011;6131;56.420;15.548;2024-02-23T02:13:27;3.03;;;2.70;;
12135;SDS011;6131;56.420;15.548;2024-02-23T02:15:53;3.33;;;2.90;;
12135;SDS011;6131;56.420;15.548;2024-02-23T02:18:19;3.33;;;2.50;;
12135;SDS011;6131;56.420;15.548;2024-02-23T02:20:53;2.53;;;1.90;;
12135;SDS011;6131;56.420;15.548;2024-02-23T02:23:19;2.47;;;2.07;;
12135;SDS011;6131;56.420;15.548;2024-02-23T02:25:51;2.10;;;1.77;;
12135;SDS011;6131;56.420;15.548;2024-02-23T02:28:17;2.00;;;1.80;;
12135;SDS011;6131;56.420;15.548;2024-02-23T02:30:43;1.90;;;1.60;;
12135;SDS011;6131;56.420;15.548;2024-02-23T02:33:09;1.53;;;1.43;;
12135;SDS011;6131;56.420;15.548;2024-02-23T02:35:35;3.03;;;1.40;;
12135;SDS011;6131;56.420;15.548;2024-02-23T02:38:01;1.37;;;1.10;;
12135;SDS011;6131;56.420;15.548;2024-02-23T02:40:27;1.50;;;1.17;;
12135;SDS011;6131;56.420;15.548;2024-02-23T02:42:53;1.93;;;1.40;;
12135;SDS011;6131;56.420;15.548;2024-02-23T02:45:19;2.60;;;1.17;;
12135;SDS011;6131;56.420;15.548;2024-02-23T02:47:45;2.97;;;1.50;;
12135;SDS011;6131;56.420;15.548;2024-02-23T02:50:11;2.00;;;1.60;;
12135;SDS011;6131;56.420;15.548;2024-02-23T02:52:37;2.10;;;1.60;;
12135;SDS011;6131;56.420;15.548;2024-02-23T02:55:03;3.17;;;2.10;;
12135;SDS011;6131;56.420;15.548;2024-02-23T02:57:29;2.03;;;1.87;;
12135;SDS011;6131;56.420;15.548;2024-02-23T02:59:55;2.73;;;2.43;;
12135;SDS011;6131;56.420;15.548;2024-02-23T03:02:21;2.47;;;2.17;;
12135;SDS011;6131;56.420;15.548;2024-02-23T03:04:48;2.80;;;2.50;;
12135;SDS011;6131;56.420;15.548;2024-02-23T03:07:14;3.07;;;2.27;;
12135;SDS011;6131;56.420;15.548;2024-02-23T03:09:40;2.73;;;2.40;;
12135;SDS011;6131;56.420;15.548;2024-02-23T03:12:07;5.63;;;2.30;;
12135;SDS011;6131;56.420;15.548;2024-02-23T03:14:33;2.27;;;2.07;;
12135;SDS011;6131;56.420;15.548;2024-02-23T03:16:59;1.77;;;1.67;;
12135;SDS011;6131;56.420;15.548;2024-02-23T03:19:25;1.97;;;1.70;;
12135;SDS011;6131;56.420;15.548;2024-02-23T03:21:52;1.73;;;1.50;;
12135;SDS011;6131;56.420;15.548;2024-02-23T03:24:18;2.80;;;1.80;;
12135;SDS011;6131;56.420;15.548;2024-02-23T03:26:44;1.40;;;1.30;;
12135;SDS011;6131;56.420;15.548;2024-02-23T03:29:10;2.13;;;1.90;;
12135;SDS011;6131;56.420;15.548;2024-02-23T03:31:36;2.47;;;2.13;;
12135;SDS011;6131;56.420;15.548;2024-02-23T03:34:02;2.30;;;2.10;;
12135;SDS011;6131;56.420;15.548;2024-02-23T03:36:28;2.60;;;2.30;;
12135;SDS011;6131;56.420;15.548;2024-02-23T03:38:54;2.40;;;2.20;;
12135;SDS011;6131;56.420;15.548;2024-02-23T03:41:20;3.23;;;2.10;;
12135;SDS011;6131;56.420;15.548;2024-02-23T03:43:46;2.30;;;2.00;;
12135;SDS011;6131;56.420;15.548;2024-02-23T03:46:12;2.43;;;1.87;;
12135;SDS011;6131;56.420;15.548;2024-02-23T03:48:40;2.73;;;2.00;;
12135;SDS011;6131;56.420;15.548;2024-02-23T03:51:06;2.37;;;2.07;;
12135;SDS011;6131;56.420;15.548;2024-02-23T03:53:34;2.57;;;2.37;;
12135;SDS011;6131;56.420;15.548;2024-02-23T03:55:59;4.87;;;2.60;;
12135;SDS011;6131;56.420;15.548;2024-02-23T03:58:25;5.83;;;3.20;;
12135;SDS011;6131;56.420;15.548;2024-02-23T04:00:51;6.00;;;3.73;;
12135;SDS011;6131;56.420;15.548;2024-02-23T04:03:18;5.63;;;4.13;;
12135;SDS011;6131;56.420;15.548;2024-02-23T04:05:44;6.73;;;4.37;;
12135;SDS011;6131;56.420;15.548;2024-02-23T04:08:10;5.13;;;4.00;;
12135;SDS011;6131;56.420;15.548;2024-02-23T04:10:36;6.17;;;5.27;;
12135;SDS011;6131;56.420;15.548;2024-02-23T04:13:02;10.03;;;6.30;;
12135;SDS011;6131;56.420;15.548;2024-02-23T04:15:28;7.53;;;5.57;;
12135;SDS011;6131;56.420;15.548;2024-02-23T04:17:54;7.50;;;6.20;;
12135;SDS011;6131;56.420;15.548;2024-02-23T04:20:20;7.03;;;5.47;;
12135;SDS011;6131;56.420;15.548;2024-02-23T04:22:46;6.90;;;6.17;;
12135;SDS011;6131;56.420;15.548;2024-02-23T04:25:13;7.53;;;5.47;;
12135;SDS011;6131;56.420;15.548;2024-02-23T04:27:39;8.40;;;5.57;;
12135;SDS011;6131;56.420;15.548;2024-02-23T04:30:05;8.97;;;5.17;;
12135;SDS011;6131;56.420;15.548;2024-02-23T04:32:31;9.43;;;5.30;;
12135;SDS011;6131;56.420;15.548;2024-02-23T04:34:57;5.43;;;4.23;;
12135;SDS011;6131;56.420;15.548;2024-02-23T04:37:23;7.07;;;5.03;;
12135;SDS011;6131;56.420;15.548;2024-02-23T04:39:49;5.63;;;4.53;;
12135;SDS011;6131;56.420;15.548;2024-02-23T04:42:15;6.37;;;4.87;;
12135;SDS011;6131;56.420;15.548;2024-02-23T04:44:41;7.40;;;4.83;;
12135;SDS011;6131;56.420;15.548;2024-02-23T04:47:08;5.63;;;4.23;;
12135;SDS011;6131;56.420;15.548;2024-02-23T04:49:34;5.30;;;3.87;;
12135;SDS011;6131;56.420;15.548;2024-02-23T04:52:00;7.47;;;4.37;;
12135;SDS011;6131;56.420;15.548;2024-02-23T04:54:26;4.93;;;3.77;;
12135;SDS011;6131;56.420;15.548;2024-02-23T04:56:52;7.53;;;4.00;;
12135;SDS011;6131;56.420;15.548;2024-02-23T04:59:18;5.70;;;3.37;;
12135;SDS011;6131;56.420;15.548;2024-02-23T05:01:44;4.40;;;2.90;;
12135;SDS011;6131;56.420;15.548;2024-02-23T05:04:10;4.17;;;2.50;;
12135;SDS011;6131;56.420;15.548;2024-02-23T05:06:36;3.87;;;2.60;;
12135;SDS011;6131;56.420;15.548;2024-02-23T05:09:02;3.53;;;2.50;;
12135;SDS011;6131;56.420;15.548;2024-02-23T05:11:28;3.93;;;1.90;;
12135;SDS011;6131;56.420;15.548;2024-02-23T05:13:54;3.40;;;1.67;;
12135;SDS011;6131;56.420;15.548;2024-02-23T05:16:20;3.70;;;1.60;;
12135;SDS011;6131;56.420;15.548;2024-02-23T05:18:46;4.53;;;1.60;;
12135;SDS011;6131;56.420;15.548;2024-02-23T05:21:14;4.40;;;1.67;;
12135;SDS011;6131;56.420;15.548;2024-02-23T05:23:41;3.10;;;1.40;;
12135;SDS011;6131;56.420;15.548;2024-02-23T05:26:07;3.50;;;1.50;;
12135;SDS011;6131;56.420;15.548;2024-02-23T05:28:33;4.23;;;1.50;;
12135;SDS011;6131;56.420;15.548;2024-02-23T05:30:59;3.47;;;1.30;;
12135;SDS011;6131;56.420;15.548;2024-02-23T05:33:29;3.53;;;1.70;;
12135;SDS011;6131;56.420;15.548;2024-02-23T05:35:55;4.80;;;1.60;;
12135;SDS011;6131;56.420;15.548;2024-02-23T05:38:21;3.10;;;1.30;;
12135;SDS011;6131;56.420;15.548;2024-02-23T05:40:47;2.17;;;1.17;;
12135;SDS011;6131;56.420;15.548;2024-02-23T05:43:13;4.00;;;1.10;;
12135;SDS011;6131;56.420;15.548;2024-02-23T05:45:39;6.10;;;1.10;;
12135;SDS011;6131;56.420;15.548;2024-02-23T05:48:05;2.93;;;1.07;;
12135;SDS011;6131;56.420;15.548;2024-02-23T05:50:32;6.80;;;1.50;;
12135;SDS011;6131;56.420;15.548;2024-02-23T05:52:58;2.67;;;1.37;;
12135;SDS011;6131;56.420;15.548;2024-02-23T05:55:24;5.30;;;1.30;;
12135;SDS011;6131;56.420;15.548;2024-02-23T05:57:50;2.20;;;1.00;;
12135;SDS011;6131;56.420;15.548;2024-02-23T06:00:17;4.47;;;1.17;;
12135;SDS011;6131;56.420;15.548;2024-02-23T06:02:46;1.93;;;0.90;;
12135;SDS011;6131;56.420;15.548;2024-02-23T06:05:12;4.00;;;1.30;;
12135;SDS011;6131;56.420;15.548;2024-02-23T06:07:38;3.00;;;1.00;;
12135;SDS011;6131;56.420;15.548;2024-02-23T06:10:05;3.57;;;1.37;;
12135;SDS011;6131;56.420;15.548;2024-02-23T06:12:31;2.47;;;0.87;;
12135;SDS011;6131;56.420;15.548;2024-02-23T06:14:57;6.77;;;1.07;;
12135;SDS011;6131;56.420;15.548;2024-02-23T06:17:23;2.30;;;1.00;;
12135;SDS011;6131;56.420;15.548;2024-02-23T06:19:49;2.03;;;1.17;;
12135;SDS011;6131;56.420;15.548;2024-02-23T06:22:17;4.00;;;1.43;;
12135;SDS011;6131;56.420;15.548;2024-02-23T06:24:46;1.90;;;0.80;;
12135;SDS011;6131;56.420;15.548;2024-02-23T06:27:12;2.93;;;0.87;;
12135;SDS011;6131;56.420;15.548;2024-02-23T06:29:38;2.00;;;1.10;;
12135;SDS011;6131;56.420;15.548;2024-02-23T06:32:04;3.30;;;0.90;;
12135;SDS011;6131;56.420;15.548;2024-02-23T06:34:30;1.70;;;0.87;;
12135;SDS011;6131;56.420;15.548;2024-02-23T06:36:57;1.57;;;0.77;;
12135;SDS011;6131;56.420;15.548;2024-02-23T06:39:23;1.57;;;0.70;;
12135;SDS011;6131;56.420;15.548;2024-02-23T06:41:49;1.93;;;0.90;;
12135;SDS011;6131;56.420;15.548;2024-02-23T06:44:15;1.27;;;0.70;;
12135;SDS011;6131;56.420;15.548;2024-02-23T06:46:40;5.57;;;1.27;;
12135;SDS011;6131;56.420;15.548;2024-02-23T06:49:07;2.33;;;0.80;;
12135;SDS011;6131;56.420;15.548;2024-02-23T06:51:33;1.17;;;0.50;;
12135;SDS011;6131;56.420;15.548;2024-02-23T06:53:59;2.07;;;0.80;;
12135;SDS011;6131;56.420;15.548;2024-02-23T06:56:25;2.43;;;0.60;;
12135;SDS011;6131;56.420;15.548;2024-02-23T06:58:51;2.53;;;0.77;;
12135;SDS011;6131;56.420;15.548;2024-02-23T07:01:17;1.33;;;0.70;;
12135;SDS011;6131;56.420;15.548;2024-02-23T07:03:45;5.23;;;0.80;;
12135;SDS011;6131;56.420;15.548;2024-02-23T07:06:14;2.97;;;0.63;;
12135;SDS011;6131;56.420;15.548;2024-02-23T07:08:43;0.47;;;0.30;;
12135;SDS011;6131;56.420;15.548;2024-02-23T07:11:09;1.80;;;0.53;;
12135;SDS011;6131;56.420;15.548;2024-02-23T07:13:35;2.67;;;0.60;;
12135;SDS011;6131;56.420;15.548;2024-02-23T07:16:02;1.43;;;0.57;;
12135;SDS011;6131;56.420;15.548;2024-02-23T07:18:28;1.37;;;0.50;;
12135;SDS011;6131;56.420;15.548;2024-02-23T07:20:54;1.33;;;0.80;;
12135;SDS011;6131;56.420;15.548;2024-02-23T07:23:20;1.43;;;0.57;;
12135;SDS011;6131;56.420;15.548;2024-02-23T07:25:47;1.03;;;0.40;;
12135;SDS011;6131;56.420;15.548;2024-02-23T07:28:15;3.27;;;0.63;;
12135;SDS011;6131;56.420;15.548;2024-02-23T07:30:44;1.80;;;0.80;;
12135;SDS011;6131;56.420;15.548;2024-02-23T07:33:11;4.03;;;0.77;;
12135;SDS011;6131;56.420;15.548;2024-02-23T07:35:37;1.53;;;0.50;;
12135;SDS011;6131;56.420;15.548;2024-02-23T07:38:03;2.67;;;0.50;;
12135;SDS011;6131;56.420;15.548;2024-02-23T07:40:29;4.13;;;0.60;;
12135;SDS011;6131;56.420;15.548;2024-02-23T07:42:57;5.63;;;0.83;;
12135;SDS011;6131;56.420;15.548;2024-02-23T07:45:23;2.73;;;0.50;;
12135;SDS011;6131;56.420;15.548;2024-02-23T07:47:48;3.03;;;0.50;;
12135;SDS011;6131;56.420;15.548;2024-02-23T07:50:14;3.23;;;0.60;;
12135;SDS011;6131;56.420;15.548;2024-02-23T07:52:41;1.57;;;0.50;;
12135;SDS011;6131;56.420;15.548;2024-02-23T07:55:07;3.07;;;0.60;;
12135;SDS011;6131;56.420;15.548;2024-02-23T07:57:33;2.27;;;0.60;;
12135;SDS011;6131;56.420;15.548;2024-02-23T07:59:59;4.93;;;0.83;;
12135;SDS011;6131;56.420;15.548;2024-02-23T08:02:25;1.80;;;0.60;;
12135;SDS011;6131;56.420;15.548;2024-02-23T08:04:51;1.27;;;0.60;;
12135;SDS011;6131;56.420;15.548;2024-02-23T08:07:17;2.10;;;0.57;;
12135;SDS011;6131;56.420;15.548;2024-02-23T08:09:43;1.20;;;0.50;;
12135;SDS011;6131;56.420;15.548;2024-02-23T08:12:09;2.00;;;0.80;;
12135;SDS011;6131;56.420;15.548;2024-02-23T08:14:38;3.77;;;1.03;;
12135;SDS011;6131;56.420;15.548;2024-02-23T08:17:04;4.90;;;0.90;;
12135;SDS011;6131;56.420;15.548;2024-02-23T08:19:30;4.57;;;0.73;;
12135;SDS011;6131;56.420;15.548;2024-02-23T08:21:56;3.23;;;0.80;;
12135;SDS011;6131;56.420;15.548;2024-02-23T08:24:22;1.77;;;0.80;;
12135;SDS011;6131;56.420;15.548;2024-02-23T08:26:48;4.93;;;1.00;;
12135;SDS011;6131;56.420;15.548;2024-02-23T08:29:14;4.10;;;0.70;;
12135;SDS011;6131;56.420;15.548;2024-02-23T08:31:41;5.03;;;0.93;;
12135;SDS011;6131;56.420;15.548;2024-02-23T08:34:07;4.07;;;0.80;;
12135;SDS011;6131;56.420;15.548;2024-02-23T08:36:33;1.83;;;0.80;;
12135;SDS011;6131;56.420;15.548;2024-02-23T08:38:59;3.53;;;0.73;;
12135;SDS011;6131;56.420;15.548;2024-02-23T08:41:25;5.37;;;0.90;;
12135;SDS011;6131;56.420;15.548;2024-02-23T08:43:51;3.27;;;0.73;;
12135;SDS011;6131;56.420;15.548;2024-02-23T08:46:17;5.70;;;0.80;;
12135;SDS011;6131;56.420;15.548;2024-02-23T08:48:44;6.33;;;0.83;;
12135;SDS011;6131;56.420;15.548;2024-02-23T08:51:10;3.67;;;0.80;;
12135;SDS011;6131;56.420;15.548;2024-02-23T08:53:36;8.03;;;1.20;;
12135;SDS011;6131;56.420;15.548;2024-02-23T08:56:02;2.80;;;0.80;;
12135;SDS011;6131;56.420;15.548;2024-02-23T08:58:28;7.87;;;1.17;;
12135;SDS011;6131;56.420;15.548;2024-02-23T09:00:54;4.67;;;1.10;;
12135;SDS011;6131;56.420;15.548;2024-02-23T09:03:20;4.47;;;1.00;;
12135;SDS011;6131;56.420;15.548;2024-02-23T09:05:46;3.17;;;0.90;;
12135;SDS011;6131;56.420;15.548;2024-02-23T09:08:13;2.60;;;0.80;;
12135;SDS011;6131;56.420;15.548;2024-02-23T09:10:39;4.33;;;0.80;;
12135;SDS011;6131;56.420;15.548;2024-02-23T09:13:05;2.77;;;0.90;;
12135;SDS011;6131;56.420;15.548;2024-02-23T09:15:31;3.23;;;0.77;;
12135;SDS011;6131;56.420;15.548;2024-02-23T09:17:57;3.37;;;0.73;;
12135;SDS011;6131;56.420;15.548;2024-02-23T09:20:23;5.03;;;1.10;;
12135;SDS011;6131;56.420;15.548;2024-02-23T09:22:49;3.13;;;0.73;;
12135;SDS011;6131;56.420;15.548;2024-02-23T09:25:15;5.10;;;1.20;;
12135;SDS011;6131;56.420;15.548;2024-02-23T09:27:41;4.20;;;0.97;;
12135;SDS011;6131;56.420;15.548;2024-02-23T09:30:11;1.87;;;0.77;;
12135;SDS011;6131;56.420;15.548;2024-02-23T09:32:37;3.17;;;0.83;;
12135;SDS011;6131;56.420;15.548;2024-02-23T09:35:03;2.93;;;0.90;;
12135;SDS011;6131;56.420;15.548;2024-02-23T09:37:31;3.23;;;1.00;;
12135;SDS011;6131;56.420;15.548;2024-02-23T09:39:57;2.57;;;0.70;;
12135;SDS011;6131;56.420;15.548;2024-02-23T09:42:23;4.60;;;1.10;;
12135;SDS011;6131;56.420;15.548;2024-02-23T09:44:51;7.07;;;1.03;;
12135;SDS011;6131;56.420;15.548;2024-02-23T09:47:20;8.97;;;1.20;;
12135;SDS011;6131;56.420;15.548;2024-02-23T09:49:46;5.40;;;1.00;;
12135;SDS011;6131;56.420;15.548;2024-02-23T09:52:15;4.77;;;1.13;;
12135;SDS011;6131;56.420;15.548;2024-02-23T09:54:41;3.73;;;1.10;;
12135;SDS011;6131;56.420;15.548;2024-02-23T09:57:07;3.40;;;1.17;;
12135;SDS011;6131;56.420;15.548;2024-02-23T09:59:34;2.33;;;0.90;;
12135;SDS011;6131;56.420;15.548;2024-02-23T10:02:01;3.33;;;1.03;;
12135;SDS011;6131;56.420;15.548;2024-02-23T10:04:28;5.50;;;1.13;;
12135;SDS011;6131;56.420;15.548;2024-02-23T10:06:55;5.10;;;1.13;;
12135;SDS011;6131;56.420;15.548;2024-02-23T10:09:21;6.93;;;1.40;;
12135;SDS011;6131;56.420;15.548;2024-02-23T10:11:53;3.03;;;0.90;;
12135;SDS011;6131;56.420;15.548;2024-02-23T10:14:20;5.23;;;0.90;;
12135;SDS011;6131;56.420;15.548;2024-02-23T10:16:47;4.63;;;1.20;;
12135;SDS011;6131;56.420;15.548;2024-02-23T10:19:17;3.27;;;0.97;;
12135;SDS011;6131;56.420;15.548;2024-02-23T10:21:44;5.73;;;1.40;;
12135;SDS011;6131;56.420;15.548;2024-02-23T10:24:10;1.83;;;0.97;;
12135;SDS011;6131;56.420;15.548;2024-02-23T10:26:36;2.83;;;0.90;;
12135;SDS011;6131;56.420;15.548;2024-02-23T10:29:02;5.00;;;0.93;;
12135;SDS011;6131;56.420;15.548;2024-02-23T10:31:30;7.17;;;1.30;;
12135;SDS011;6131;56.420;15.548;2024-02-23T10:33:58;5.10;;;1.47;;
12135;SDS011;6131;56.420;15.548;2024-02-23T10:36:24;5.47;;;1.37;;
12135;SDS011;6131;56.420;15.548;2024-02-23T10:38:55;5.80;;;1.37;;
12135;SDS011;6131;56.420;15.548;2024-02-23T10:41:23;6.30;;;1.40;;
12135;SDS011;6131;56.420;15.548;2024-02-23T10:43:49;4.40;;;1.57;;
12135;SDS011;6131;56.420;15.548;2024-02-23T10:46:16;7.53;;;1.43;;
12135;SDS011;6131;56.420;15.548;2024-02-23T10:48:44;5.87;;;1.67;;
12135;SDS011;6131;56.420;15.548;2024-02-23T10:51:10;4.23;;;1.23;;
12135;SDS011;6131;56.420;15.548;2024-02-23T10:53:38;6.77;;;1.20;;
12135;SDS011;6131;56.420;15.548;2024-02-23T10:56:05;7.57;;;1.10;;
12135;SDS011;6131;56.420;15.548;2024-02-23T10:58:31;4.93;;;1.53;;
12135;SDS011;6131;56.420;15.548;2024-02-23T11:01:00;3.80;;;1.30;;
12135;SDS011;6131;56.420;15.548;2024-02-23T11:03:28;4.93;;;1.10;;
12135;SDS011;6131;56.420;15.548;2024-02-23T11:05:55;5.20;;;1.10;;
12135;SDS011;6131;56.420;15.548;2024-02-23T11:08:21;3.73;;;1.30;;
12135;SDS011;6131;56.420;15.548;2024-02-23T11:10:50;7.20;;;1.57;;
12135;SDS011;6131;56.420;15.548;2024-02-23T11:13:38;4.33;;;1.17;;
12135;SDS011;6131;56.420;15.548;2024-02-23T11:16:04;5.30;;;1.27;;
12135;SDS011;6131;56.420;15.548;2024-02-23T11:18:31;5.00;;;1.30;;
12135;SDS011;6131;56.420;15.548;2024-02-23T11:21:00;6.53;;;1.60;;
12135;SDS011;6131;56.420;15.548;2024-02-23T11:23:27;4.97;;;1.33;;
12135;SDS011;6131;56.420;15.548;2024-02-23T11:28:28;4.93;;;1.30;;
12135;SDS011;6131;56.420;15.548;2024-02-23T11:30:54;6.80;;;1.90;;
12135;SDS011;6131;56.420;15.548;2024-02-23T11:33:27;2.67;;;1.00;;
12135;SDS011;6131;56.420;15.548;2024-02-23T11:35:53;7.87;;;1.57;;
12135;SDS011;6131;56.420;15.548;2024-02-23T11:38:20;5.03;;;1.40;;
12135;SDS011;6131;56.420;15.548;2024-02-23T11:40:48;7.33;;;1.37;;
12135;SDS011;6131;56.420;15.548;2024-02-23T11:43:14;3.50;;;1.20;;
12135;SDS011;6131;56.420;15.548;2024-02-23T11:45:40;7.07;;;1.47;;
12135;SDS011;6131;56.420;15.548;2024-02-23T11:48:06;3.37;;;1.07;;
12135;SDS011;6131;56.420;15.548;2024-02-23T11:50:32;1.90;;;1.00;;
12135;SDS011;6131;56.420;15.548;2024-02-23T11:52:59;3.97;;;1.23;;
12135;SDS011;6131;56.420;15.548;2024-02-23T11:55:26;4.07;;;1.00;;
12135;SDS011;6131;56.420;15.548;2024-02-23T11:57:52;7.53;;;1.63;;
12135;SDS011;6131;56.420;15.548;2024-02-23T12:00:18;4.80;;;0.83;;
12135;SDS011;6131;56.420;15.548;2024-02-23T12:02:44;3.90;;;1.10;;
12135;SDS011;6131;56.420;15.548;2024-02-23T12:05:15;6.10;;;1.10;;
12135;SDS011;6131;56.420;15.548;2024-02-23T12:07:41;4.63;;;1.30;;
12135;SDS011;6131;56.420;15.548;2024-02-23T12:10:07;3.00;;;0.97;;
12135;SDS011;6131;56.420;15.548;2024-02-23T12:12:33;3.73;;;1.20;;
12135;SDS011;6131;56.420;15.548;2024-02-23T12:14:59;3.90;;;1.20;;
12135;SDS011;6131;56.420;15.548;2024-02-23T12:17:25;2.97;;;0.90;;
12135;SDS011;6131;56.420;15.548;2024-02-23T12:20:01;6.50;;;1.23;;
12135;SDS011;6131;56.420;15.548;2024-02-23T12:22:28;3.80;;;0.90;;
12135;SDS011;6131;56.420;15.548;2024-02-23T12:24:57;2.43;;;0.90;;
12135;SDS011;6131;56.420;15.548;2024-02-23T12:27:22;2.13;;;0.90;;
12135;SDS011;6131;56.420;15.548;2024-02-23T12:29:53;5.83;;;1.27;;
12135;SDS011;6131;56.420;15.548;2024-02-23T12:32:22;3.97;;;1.23;;
12135;SDS011;6131;56.420;15.548;2024-02-23T12:34:48;5.27;;;1.27;;
12135;SDS011;6131;56.420;15.548;2024-02-23T12:37:14;3.37;;;1.20;;
12135;SDS011;6131;56.420;15.548;2024-02-23T12:39:44;2.47;;;0.93;;
12135;SDS011;6131;56.420;15.548;2024-02-23T12:42:10;3.97;;;1.10;;
12135;SDS011;6131;56.420;15.548;2024-02-23T12:44:36;2.70;;;1.07;;
12135;SDS011;6131;56.420;15.548;2024-02-23T12:47:02;4.07;;;1.30;;
12135;SDS011;6131;56.420;15.548;2024-02-23T12:49:28;3.53;;;1.03;;
12135;SDS011;6131;56.420;15.548;2024-02-23T12:51:54;6.10;;;1.37;;
12135;SDS011;6131;56.420;15.548;2024-02-23T12:54:20;2.87;;;0.90;;
12135;SDS011;6131;56.420;15.548;2024-02-23T12:56:46;3.97;;;1.33;;
12135;SDS011;6131;56.420;15.548;2024-02-23T12:59:13;3.37;;;0.80;;
12135;SDS011;6131;56.420;15.548;2024-02-23T13:01:39;4.03;;;1.10;;
12135;SDS011;6131;56.420;15.548;2024-02-23T13:04:05;5.47;;;1.17;;
12135;SDS011;6131;56.420;15.548;2024-02-23T13:06:38;4.43;;;1.30;;
12135;SDS011;6131;56.420;15.548;2024-02-23T13:09:05;5.70;;;0.90;;
12135;SDS011;6131;56.420;15.548;2024-02-23T13:11:33;3.07;;;1.10;;
12135;SDS011;6131;56.420;15.548;2024-02-23T13:13:59;4.00;;;1.33;;
12135;SDS011;6131;56.420;15.548;2024-02-23T13:16:26;1.57;;;0.90;;
12135;SDS011;6131;56.420;15.548;2024-02-23T13:18:52;5.63;;;1.40;;
12135;SDS011;6131;56.420;15.548;2024-02-23T13:21:18;4.40;;;1.20;;
12135;SDS011;6131;56.420;15.548;2024-02-23T13:23:44;5.13;;;1.50;;
12135;SDS011;6131;56.420;15.548;2024-02-23T13:26:10;4.10;;;1.10;;
12135;SDS011;6131;56.420;15.548;2024-02-23T13:28:39;3.53;;;1.00;;
12135;SDS011;6131;56.420;15.548;2024-02-23T13:31:05;5.40;;;1.50;;
12135;SDS011;6131;56.420;15.548;2024-02-23T13:33:31;4.40;;;1.20;;
12135;SDS011;6131;56.420;15.548;2024-02-23T13:35:57;3.77;;;1.30;;
12135;SDS011;6131;56.420;15.548;2024-02-23T13:38:24;3.70;;;1.00;;
12135;SDS011;6131;56.420;15.548;2024-02-23T13:40:50;3.80;;;0.90;;
12135;SDS011;6131;56.420;15.548;2024-02-23T13:43:16;8.17;;;1.43;;
12135;SDS011;6131;56.420;15.548;2024-02-23T13:45:49;7.23;;;1.37;;
12135;SDS011;6131;56.420;15.548;2024-02-23T13:48:18;6.60;;;1.30;;
12135;SDS011;6131;56.420;15.548;2024-02-23T13:50:48;4.27;;;1.20;;
12135;SDS011;6131;56.420;15.548;2024-02-23T13:53:14;7.40;;;1.10;;
12135;SDS011;6131;56.420;15.548;2024-02-23T13:55:40;3.67;;;1.00;;
12135;SDS011;6131;56.420;15.548;2024-02-23T13:58:10;4.30;;;1.20;;
12135;SDS011;6131;56.420;15.548;2024-02-23T14:00:37;4.07;;;1.17;;
12135;SDS011;6131;56.420;15.548;2024-02-23T14:03:03;5.93;;;1.53;;
12135;SDS011;6131;56.420;15.548;2024-02-23T14:05:29;5.27;;;1.00;;
12135;SDS011;6131;56.420;15.548;2024-02-23T14:07:55;4.20;;;1.20;;
12135;SDS011;6131;56.420;15.548;2024-02-23T14:10:21;3.77;;;1.30;;
12135;SDS011;6131;56.420;15.548;2024-02-23T14:12:47;5.63;;;1.30;;
12135;SDS011;6131;56.420;15.548;2024-02-23T14:15:15;3.40;;;1.30;;
12135;SDS011;6131;56.420;15.548;2024-02-23T14:17:42;3.17;;;1.40;;
12135;SDS011;6131;56.420;15.548;2024-02-23T14:20:08;7.27;;;1.50;;
12135;SDS011;6131;56.420;15.548;2024-02-23T14:22:34;3.23;;;1.23;;
12135;SDS011;6131;56.420;15.548;2024-02-23T14:25:00;5.90;;;1.10;;
12135;SDS011;6131;56.420;15.548;2024-02-23T14:27:26;4.03;;;1.30;;
12135;SDS011;6131;56.420;15.548;2024-02-23T14:29:53;2.83;;;1.13;;
12135;SDS011;6131;56.420;15.548;2024-02-23T14:32:19;5.03;;;1.30;;
12135;SDS011;6131;56.420;15.548;2024-02-23T14:34:49;4.63;;;1.40;;
12135;SDS011;6131;56.420;15.548;2024-02-23T14:37:15;2.43;;;0.97;;
12135;SDS011;6131;56.420;15.548;2024-02-23T14:39:41;4.07;;;1.40;;
12135;SDS011;6131;56.420;15.548;2024-02-23T14:42:07;3.80;;;1.00;;
12135;SDS011;6131;56.420;15.548;2024-02-23T14:44:33;4.57;;;1.20;;
12135;SDS011;6131;56.420;15.548;2024-02-23T14:46:59;3.97;;;1.00;;
12135;SDS011;6131;56.420;15.548;2024-02-23T14:49:25;4.73;;;1.50;;